createdAt,value
2017-06-13T00:00:40.278Z,1008.30
2017-06-13T00:01:36.542Z,1008.34
2017-06-13T00:02:32.786Z,1008.32
2017-06-13T00:03:29.035Z,1008.21
2017-06-13T00:04:25.276Z,1008.37
2017-06-13T00:05:21.512Z,1008.30
2017-06-13T00:06:17.766Z,1008.32
2017-06-13T00:07:14.026Z,1008.26
2017-06-13T00:08:10.279Z,1008.36
2017-06-13T00:09:06.523Z,1008.32
2017-06-13T00:10:02.782Z,1008.38
2017-06-13T00:10:59.014Z,1008.30
2017-06-13T00:11:55.271Z,1008.37
2017-06-13T00:12:51.538Z,1008.40
2017-06-13T00:13:47.771Z,1008.40
2017-06-13T00:14:44.019Z,1008.31
2017-06-13T00:15:40.251Z,1008.33
2017-06-13T00:16:36.502Z,1008.34
2017-06-13T00:17:32.767Z,1008.34
2017-06-13T00:18:29.007Z,1008.26
2017-06-13T00:19:25.274Z,1008.31
2017-06-13T00:20:21.529Z,1008.27
2017-06-13T00:21:17.763Z,1008.29
2017-06-13T00:22:14.030Z,1008.20
2017-06-13T00:23:10.278Z,1008.26
2017-06-13T00:24:06.515Z,1008.25
2017-06-13T00:25:02.758Z,1008.20
2017-06-13T00:25:59.006Z,1008.27
2017-06-13T00:26:55.271Z,1008.16
2017-06-13T00:27:51.534Z,1008.24
2017-06-13T00:28:47.786Z,1008.19
2017-06-13T00:29:44.022Z,1008.25
2017-06-13T00:30:40.276Z,1008.26
2017-06-13T00:31:36.531Z,1008.33
2017-06-13T00:32:32.782Z,1008.30
2017-06-13T00:33:29.035Z,1008.29
2017-06-13T00:34:25.298Z,1008.29
2017-06-13T00:35:21.559Z,1008.27
2017-06-13T00:36:17.797Z,1008.31
2017-06-13T00:37:14.063Z,1008.28
2017-06-13T00:38:10.314Z,1008.31
2017-06-13T00:39:06.551Z,1008.25
2017-06-13T00:40:02.802Z,1008.30
2017-06-13T00:40:59.050Z,1008.38
2017-06-13T00:41:56.076Z,1008.37
2017-06-13T00:42:52.345Z,1008.33
2017-06-13T00:43:48.592Z,1008.31
2017-06-13T00:44:44.875Z,1008.34
2017-06-13T00:45:41.127Z,1008.31
2017-06-13T00:46:37.400Z,1008.30
2017-06-13T00:47:33.676Z,1008.30
2017-06-13T00:48:29.940Z,1008.33
2017-06-13T00:49:26.183Z,1008.35
2017-06-13T00:50:22.443Z,1008.32
2017-06-13T00:51:18.679Z,1008.32
2017-06-13T00:52:14.934Z,1008.33
2017-06-13T00:53:11.255Z,1008.32
2017-06-13T00:54:07.518Z,1008.38
2017-06-13T00:55:03.794Z,1008.27
2017-06-13T00:56:00.030Z,1008.29
2017-06-13T00:56:56.311Z,1008.27
2017-06-13T00:57:52.575Z,1008.35
2017-06-13T00:58:48.831Z,1008.28
2017-06-13T00:59:45.082Z,1008.26
2017-06-13T01:00:41.350Z,1008.25
2017-06-13T01:01:37.604Z,1008.29
2017-06-13T01:02:33.863Z,1008.28
2017-06-13T01:03:30.114Z,1008.27
2017-06-13T01:04:26.359Z,1008.35
2017-06-13T01:05:22.631Z,1008.30
2017-06-13T01:06:18.883Z,1008.30
2017-06-13T01:07:15.127Z,1008.31
2017-06-13T01:08:11.399Z,1008.31
2017-06-13T01:09:07.663Z,1008.27
2017-06-13T01:10:03.930Z,1008.35
2017-06-13T01:11:00.219Z,1008.38
2017-06-13T01:11:56.475Z,1008.39
2017-06-13T01:12:52.751Z,1008.40
2017-06-13T01:13:49.019Z,1008.39
2017-06-13T01:14:45.287Z,1008.42
2017-06-13T01:15:41.663Z,1008.44
2017-06-13T01:16:38.155Z,1008.40
2017-06-13T01:17:34.559Z,1008.41
2017-06-13T01:18:30.819Z,1008.36
2017-06-13T01:19:27.159Z,1008.40
2017-06-13T01:20:23.471Z,1008.45
2017-06-13T01:21:19.731Z,1008.38
2017-06-13T01:22:16.003Z,1008.39
2017-06-13T01:23:12.307Z,1008.33
2017-06-13T01:24:08.702Z,1008.38
2017-06-13T01:25:05.075Z,1008.37
2017-06-13T01:26:01.331Z,1008.37
2017-06-13T01:26:57.834Z,1008.40
2017-06-13T01:27:54.115Z,1008.37
2017-06-13T01:28:50.648Z,1008.40
2017-06-13T01:29:46.900Z,1008.31
2017-06-13T01:30:43.154Z,1008.38
2017-06-13T01:31:39.399Z,1008.42
2017-06-13T01:32:35.643Z,1008.35
2017-06-13T01:33:31.902Z,1008.43
2017-06-13T01:34:28.130Z,1008.44
2017-06-13T01:35:24.370Z,1008.41
2017-06-13T01:36:20.607Z,1008.41
2017-06-13T01:37:16.891Z,1008.39
2017-06-13T01:38:13.142Z,1008.38
2017-06-13T01:39:09.370Z,1008.35
2017-06-13T01:40:05.606Z,1008.40
2017-06-13T01:41:01.858Z,1008.44
2017-06-13T01:41:58.114Z,1008.46
2017-06-13T01:42:54.352Z,1008.44
2017-06-13T01:43:50.599Z,1008.45
2017-06-13T01:44:46.834Z,1008.52
2017-06-13T01:45:43.071Z,1008.45
2017-06-13T01:46:39.294Z,1008.47
2017-06-13T01:47:35.548Z,1008.46
2017-06-13T01:48:31.818Z,1008.48
2017-06-13T01:49:28.049Z,1008.40
2017-06-13T01:50:24.299Z,1008.40
2017-06-13T01:51:20.550Z,1008.46
2017-06-13T01:52:16.775Z,1008.50
2017-06-13T01:53:13.022Z,1008.47
2017-06-13T01:54:09.315Z,1008.43
2017-06-13T01:55:05.559Z,1008.44
2017-06-13T01:56:01.791Z,1008.41
2017-06-13T01:56:58.028Z,1008.45
2017-06-13T01:57:54.259Z,1008.44
2017-06-13T01:58:50.522Z,1008.46
2017-06-13T01:59:46.761Z,1008.44
2017-06-13T02:00:43.002Z,1008.44
2017-06-13T02:01:39.255Z,1008.39
2017-06-13T02:02:35.499Z,1008.41
2017-06-13T02:03:31.747Z,1008.49
2017-06-13T02:04:27.999Z,1008.52
2017-06-13T02:05:24.230Z,1008.49
2017-06-13T02:06:20.471Z,1008.43
2017-06-13T02:07:16.711Z,1008.41
2017-06-13T02:08:12.950Z,1008.51
2017-06-13T02:09:09.190Z,1008.50
2017-06-13T02:10:05.438Z,1008.53
2017-06-13T02:11:01.663Z,1008.40
2017-06-13T02:11:57.903Z,1008.41
2017-06-13T02:12:54.126Z,1008.42
2017-06-13T02:13:50.377Z,1008.41
2017-06-13T02:14:46.606Z,1008.41
2017-06-13T02:15:42.835Z,1008.37
2017-06-13T02:16:39.195Z,1008.46
2017-06-13T02:17:35.439Z,1008.41
2017-06-13T02:18:31.671Z,1008.41
2017-06-13T02:19:27.931Z,1008.36
2017-06-13T02:20:24.174Z,1008.39
2017-06-13T02:21:20.782Z,1008.42
2017-06-13T02:22:17.023Z,1008.36
2017-06-13T02:23:13.266Z,1008.44
2017-06-13T02:24:09.547Z,1008.35
2017-06-13T02:25:05.771Z,1008.44
2017-06-13T02:26:02.011Z,1008.42
2017-06-13T02:26:58.247Z,1008.42
2017-06-13T02:27:54.482Z,1008.47
2017-06-13T02:28:50.738Z,1008.38
2017-06-13T02:29:46.982Z,1008.40
2017-06-13T02:30:43.219Z,1008.48
2017-06-13T02:31:39.451Z,1008.45
2017-06-13T02:32:35.711Z,1008.45
2017-06-13T02:33:31.959Z,1008.46
2017-06-13T02:34:28.231Z,1008.38
2017-06-13T02:35:24.474Z,1008.45
2017-06-13T02:36:20.719Z,1008.47
2017-06-13T02:37:16.970Z,1008.43
2017-06-13T02:38:13.210Z,1008.48
2017-06-13T02:39:09.475Z,1008.52
2017-06-13T02:40:05.722Z,1008.46
2017-06-13T02:41:01.975Z,1008.45
2017-06-13T02:41:58.251Z,1008.45
2017-06-13T02:42:54.494Z,1008.53
2017-06-13T02:43:50.754Z,1008.47
2017-06-13T02:44:47.006Z,1008.49
2017-06-13T02:45:43.247Z,1008.54
2017-06-13T02:46:39.482Z,1008.52
2017-06-13T02:47:35.730Z,1008.53
2017-06-13T02:48:31.963Z,1008.56
2017-06-13T02:49:28.227Z,1008.51
2017-06-13T02:50:24.475Z,1008.55
2017-06-13T02:51:20.722Z,1008.56
2017-06-13T02:52:16.983Z,1008.50
2017-06-13T02:53:13.223Z,1008.56
2017-06-13T02:54:09.487Z,1008.55
2017-06-13T02:55:05.759Z,1008.59
2017-06-13T02:56:02.012Z,1008.57
2017-06-13T02:56:58.252Z,1008.57
2017-06-13T02:57:54.494Z,1008.55
2017-06-13T02:58:50.735Z,1008.54
2017-06-13T02:59:46.988Z,1008.56
2017-06-13T03:00:43.230Z,1008.62
2017-06-13T03:01:39.467Z,1008.54
2017-06-13T03:02:35.710Z,1008.54
2017-06-13T03:03:31.950Z,1008.60
2017-06-13T03:04:28.206Z,1008.64
2017-06-13T03:05:24.443Z,1008.65
2017-06-13T03:06:20.710Z,1008.76
2017-06-13T03:07:16.955Z,1008.68
2017-06-13T03:08:13.207Z,1008.72
2017-06-13T03:09:09.450Z,1008.76
2017-06-13T03:10:05.711Z,1008.79
2017-06-13T03:11:01.955Z,1008.84
2017-06-13T03:11:58.195Z,1008.76
2017-06-13T03:12:54.431Z,1008.78
2017-06-13T03:13:50.687Z,1008.77
2017-06-13T03:14:46.947Z,1008.81
2017-06-13T03:15:43.219Z,1008.77
2017-06-13T03:16:39.510Z,1008.77
2017-06-13T03:17:35.754Z,1008.79
2017-06-13T03:18:32.007Z,1008.82
2017-06-13T03:19:28.279Z,1008.78
2017-06-13T03:20:24.527Z,1008.83
2017-06-13T03:21:20.779Z,1008.89
2017-06-13T03:22:17.029Z,1008.82
2017-06-13T03:23:13.271Z,1008.82
2017-06-13T03:24:09.514Z,1008.80
2017-06-13T03:25:05.777Z,1008.81
2017-06-13T03:26:02.059Z,1008.75
2017-06-13T03:26:58.326Z,1008.78
2017-06-13T03:27:54.566Z,1008.78
2017-06-13T03:28:50.819Z,1008.75
2017-06-13T03:29:47.070Z,1008.81
2017-06-13T03:30:43.318Z,1008.78
2017-06-13T03:31:39.558Z,1008.82
2017-06-13T03:32:35.807Z,1008.80
2017-06-13T03:33:32.082Z,1008.72
2017-06-13T03:34:28.326Z,1008.84
2017-06-13T03:35:24.581Z,1008.84
2017-06-13T03:36:20.829Z,1008.80
2017-06-13T03:37:17.075Z,1008.77
2017-06-13T03:38:13.330Z,1008.76
2017-06-13T03:39:11.174Z,1008.80
2017-06-13T03:40:07.431Z,1008.72
2017-06-13T03:41:03.674Z,1008.71
2017-06-13T03:41:59.918Z,1008.71
2017-06-13T03:42:56.146Z,1008.70
2017-06-13T03:43:52.391Z,1008.70
2017-06-13T03:44:48.655Z,1008.76
2017-06-13T03:45:44.914Z,1008.73
2017-06-13T03:46:41.150Z,1008.75
2017-06-13T03:47:37.430Z,1008.72
2017-06-13T03:48:33.690Z,1008.74
2017-06-13T03:49:29.930Z,1008.84
2017-06-13T03:50:26.187Z,1008.83
2017-06-13T03:51:22.439Z,1008.74
2017-06-13T03:52:18.688Z,1008.81
2017-06-13T03:53:14.943Z,1008.74
2017-06-13T03:54:11.199Z,1008.82
2017-06-13T03:55:07.454Z,1008.85
2017-06-13T03:56:03.736Z,1008.84
2017-06-13T03:56:59.995Z,1008.79
2017-06-13T03:57:56.239Z,1008.87
2017-06-13T03:58:52.506Z,1008.82
2017-06-13T03:59:48.767Z,1008.83
2017-06-13T04:00:45.030Z,1008.79
2017-06-13T04:01:41.267Z,1008.78
2017-06-13T04:02:37.528Z,1008.80
2017-06-13T04:03:33.778Z,1008.86
2017-06-13T04:04:30.038Z,1008.83
2017-06-13T04:05:26.291Z,1008.82
2017-06-13T04:06:22.545Z,1008.89
2017-06-13T04:07:18.795Z,1008.92
2017-06-13T04:08:15.046Z,1008.95
2017-06-13T04:09:11.543Z,1008.93
2017-06-13T04:10:07.791Z,1008.91
2017-06-13T04:11:04.046Z,1009.00
2017-06-13T04:12:00.295Z,1008.89
2017-06-13T04:12:56.546Z,1008.83
2017-06-13T04:13:52.795Z,1008.91
2017-06-13T04:14:49.126Z,1008.89
2017-06-13T04:15:45.382Z,1008.97
2017-06-13T04:16:41.620Z,1008.95
2017-06-13T04:17:37.863Z,1008.97
2017-06-13T04:18:34.103Z,1008.91
2017-06-13T04:19:30.492Z,1008.99
2017-06-13T04:20:26.754Z,1008.96
2017-06-13T04:21:22.988Z,1008.95
2017-06-13T04:22:19.210Z,1008.92
2017-06-13T04:23:15.463Z,1008.89
2017-06-13T04:24:11.686Z,1008.96
2017-06-13T04:25:07.922Z,1008.97
2017-06-13T04:26:08.691Z,1008.92
2017-06-13T04:27:04.978Z,1008.86
2017-06-13T04:28:01.267Z,1008.94
2017-06-13T04:28:57.566Z,1008.99
2017-06-13T04:29:53.871Z,1008.89
2017-06-13T04:30:50.198Z,1008.89
2017-06-13T04:31:46.427Z,1008.91
2017-06-13T04:32:42.666Z,1008.95
2017-06-13T04:33:38.894Z,1008.87
2017-06-13T04:34:35.135Z,1008.91
2017-06-13T04:35:31.379Z,1008.96
2017-06-13T04:36:27.624Z,1008.92
2017-06-13T04:37:23.855Z,1008.80
2017-06-13T04:38:20.095Z,1008.96
2017-06-13T04:39:16.327Z,1008.98
2017-06-13T04:40:12.574Z,1009.03
2017-06-13T04:41:08.831Z,1009.02
2017-06-13T04:42:05.099Z,1008.88
2017-06-13T04:43:01.358Z,1008.94
2017-06-13T04:43:57.662Z,1008.97
2017-06-13T04:44:53.886Z,1008.97
2017-06-13T04:45:50.147Z,1008.96
2017-06-13T04:46:46.370Z,1009.00
2017-06-13T04:47:42.595Z,1008.95
2017-06-13T04:48:38.830Z,1008.98
2017-06-13T04:49:35.071Z,1008.98
2017-06-13T04:50:31.320Z,1008.98
2017-06-13T04:51:27.571Z,1008.95
2017-06-13T04:52:23.802Z,1008.94
2017-06-13T04:53:20.032Z,1008.95
2017-06-13T04:54:16.260Z,1008.99
2017-06-13T04:55:12.507Z,1008.99
2017-06-13T04:56:08.754Z,1008.98
2017-06-13T04:57:04.998Z,1009.00
2017-06-13T04:58:01.243Z,1009.02
2017-06-13T04:58:57.476Z,1008.95
2017-06-13T04:59:53.763Z,1009.02
2017-06-13T05:00:49.999Z,1008.90
2017-06-13T05:01:46.251Z,1008.99
2017-06-13T05:02:42.612Z,1009.04
2017-06-13T05:03:38.846Z,1008.97
2017-06-13T05:04:35.087Z,1008.95
2017-06-13T05:05:31.327Z,1008.93
2017-06-13T05:06:27.583Z,1008.91
2017-06-13T05:07:23.832Z,1008.95
2017-06-13T05:08:20.103Z,1008.97
2017-06-13T05:09:16.906Z,1008.87
2017-06-13T05:10:13.147Z,1008.93
2017-06-13T05:11:09.411Z,1008.91
2017-06-13T05:12:05.655Z,1008.95
2017-06-13T05:13:01.902Z,1008.91
2017-06-13T05:13:58.143Z,1008.92
2017-06-13T05:14:54.386Z,1008.96
2017-06-13T05:15:50.667Z,1008.96
2017-06-13T05:16:47.147Z,1008.96
2017-06-13T05:17:43.382Z,1008.98
2017-06-13T05:18:39.615Z,1008.94
2017-06-13T05:19:35.859Z,1009.00
2017-06-13T05:20:32.095Z,1009.03
2017-06-13T05:21:28.390Z,1009.02
2017-06-13T05:22:24.627Z,1009.06
2017-06-13T05:23:20.879Z,1009.01
2017-06-13T05:24:17.119Z,1009.09
2017-06-13T05:25:13.342Z,1009.04
2017-06-13T05:26:09.586Z,1009.01
2017-06-13T05:27:05.848Z,1009.09
2017-06-13T05:28:02.146Z,1009.03
2017-06-13T05:28:58.429Z,1009.09
2017-06-13T05:29:54.666Z,1009.07
2017-06-13T05:30:50.920Z,1009.05
2017-06-13T05:31:47.190Z,1009.04
2017-06-13T05:32:43.422Z,1009.07
2017-06-13T05:33:39.707Z,1009.09
2017-06-13T05:34:35.975Z,1009.07
2017-06-13T05:35:32.223Z,1009.05
2017-06-13T05:36:28.474Z,1009.09
2017-06-13T05:37:24.735Z,1009.15
2017-06-13T05:38:20.990Z,1009.06
2017-06-13T05:39:17.227Z,1009.06
2017-06-13T05:40:13.474Z,1009.03
2017-06-13T05:41:09.715Z,1009.01
2017-06-13T05:42:05.974Z,1009.04
2017-06-13T05:43:02.243Z,1009.00
2017-06-13T05:43:58.495Z,1009.02
2017-06-13T05:44:54.735Z,1009.02
2017-06-13T05:45:50.978Z,1008.96
2017-06-13T05:46:47.242Z,1009.04
2017-06-13T05:47:43.494Z,1009.06
2017-06-13T05:48:39.739Z,1008.96
2017-06-13T05:49:35.977Z,1009.08
2017-06-13T05:50:32.235Z,1009.05
2017-06-13T05:51:28.467Z,1009.07
2017-06-13T05:52:24.722Z,1009.06
2017-06-13T05:53:20.951Z,1009.05
2017-06-13T05:54:17.195Z,1009.08
2017-06-13T05:55:13.462Z,1009.02
2017-06-13T05:56:09.711Z,1009.01
2017-06-13T05:57:05.975Z,1009.05
2017-06-13T05:58:02.231Z,1009.06
2017-06-13T05:58:58.515Z,1009.00
2017-06-13T05:59:54.752Z,1009.05
2017-06-13T06:00:50.991Z,1009.04
2017-06-13T06:01:47.230Z,1009.09
2017-06-13T06:02:43.479Z,1009.04
2017-06-13T06:03:39.712Z,1009.06
2017-06-13T06:04:35.963Z,1009.07
2017-06-13T06:05:32.203Z,1009.05
2017-06-13T06:06:28.455Z,1009.01
2017-06-13T06:07:24.699Z,1009.11
2017-06-13T06:08:20.942Z,1009.05
2017-06-13T06:09:17.180Z,1009.06
2017-06-13T06:10:13.422Z,1009.06
2017-06-13T06:11:09.655Z,1009.15
2017-06-13T06:12:05.894Z,1009.13
2017-06-13T06:13:02.155Z,1009.10
2017-06-13T06:13:58.395Z,1009.19
2017-06-13T06:14:54.646Z,1009.12
2017-06-13T06:15:50.887Z,1009.03
2017-06-13T06:16:47.127Z,1009.17
2017-06-13T06:17:43.367Z,1009.11
2017-06-13T06:18:39.622Z,1009.08
2017-06-13T06:19:36.015Z,1009.06
2017-06-13T06:20:32.254Z,1009.10
2017-06-13T06:21:28.483Z,1009.14
2017-06-13T06:22:24.726Z,1009.18
2017-06-13T06:23:20.963Z,1009.19
2017-06-13T06:24:17.255Z,1009.23
2017-06-13T06:25:13.495Z,1009.18
2017-06-13T06:26:09.727Z,1009.21
2017-06-13T06:27:06.031Z,1009.09
2017-06-13T06:28:02.272Z,1009.15
2017-06-13T06:28:58.506Z,1009.16
2017-06-13T06:29:54.761Z,1009.13
2017-06-13T06:30:51.002Z,1009.14
2017-06-13T06:31:47.231Z,1009.17
2017-06-13T06:32:43.474Z,1009.15
2017-06-13T06:33:39.724Z,1009.13
2017-06-13T06:34:35.982Z,1009.18
2017-06-13T06:35:32.227Z,1009.24
2017-06-13T06:36:28.470Z,1009.20
2017-06-13T06:37:24.696Z,1009.18
2017-06-13T06:38:20.932Z,1009.24
2017-06-13T06:39:17.166Z,1009.22
2017-06-13T06:40:13.418Z,1009.20
2017-06-13T06:41:09.658Z,1009.30
2017-06-13T06:42:05.887Z,1009.24
2017-06-13T06:43:02.122Z,1009.30
2017-06-13T06:43:58.364Z,1009.26
2017-06-13T06:44:54.628Z,1009.23
2017-06-13T06:45:50.870Z,1009.32
2017-06-13T06:46:47.113Z,1009.25
2017-06-13T06:47:43.846Z,1009.28
2017-06-13T06:48:40.099Z,1009.22
2017-06-13T06:49:36.342Z,1009.27
2017-06-13T06:50:32.579Z,1009.22
2017-06-13T06:51:28.824Z,1009.23
2017-06-13T06:52:25.066Z,1009.24
2017-06-13T06:53:21.341Z,1009.31
2017-06-13T06:54:17.587Z,1009.28
2017-06-13T06:55:13.833Z,1009.27
2017-06-13T06:56:10.063Z,1009.24
2017-06-13T06:57:06.315Z,1009.23
2017-06-13T06:58:02.556Z,1009.18
2017-06-13T06:58:58.804Z,1009.25
2017-06-13T06:59:55.082Z,1009.25
2017-06-13T07:00:51.313Z,1009.21
2017-06-13T07:01:47.578Z,1009.20
2017-06-13T07:02:43.815Z,1009.23
2017-06-13T07:03:40.042Z,1009.25
2017-06-13T07:04:36.286Z,1009.25
2017-06-13T07:05:32.579Z,1009.21
2017-06-13T07:06:28.896Z,1009.15
2017-06-13T07:07:25.135Z,1009.21
2017-06-13T07:08:21.419Z,1009.29
2017-06-13T07:09:17.671Z,1009.17
2017-06-13T07:10:13.919Z,1009.23
2017-06-13T07:11:10.184Z,1009.18
2017-06-13T07:12:06.422Z,1009.24
2017-06-13T07:13:02.650Z,1009.20
2017-06-13T07:13:58.900Z,1009.16
2017-06-13T07:14:55.147Z,1009.18
2017-06-13T07:15:51.378Z,1009.31
2017-06-13T07:16:47.639Z,1009.20
2017-06-13T07:17:43.885Z,1009.16
2017-06-13T07:18:40.119Z,1009.23
2017-06-13T07:19:36.358Z,1009.22
2017-06-13T07:20:32.626Z,1009.13
2017-06-13T07:21:28.871Z,1009.18
2017-06-13T07:22:25.127Z,1009.14
2017-06-13T07:23:21.379Z,1009.08
2017-06-13T07:24:17.622Z,1009.24
2017-06-13T07:25:13.866Z,1009.15
2017-06-13T07:26:10.107Z,1009.23
2017-06-13T07:27:06.343Z,1009.19
2017-06-13T07:28:02.606Z,1009.09
2017-06-13T07:28:58.863Z,1009.10
2017-06-13T07:29:55.113Z,1009.16
2017-06-13T07:30:51.354Z,1009.06
2017-06-13T07:31:47.607Z,1009.20
2017-06-13T07:32:43.843Z,1009.18
2017-06-13T07:33:40.107Z,1009.12
2017-06-13T07:34:36.339Z,1009.17
2017-06-13T07:35:32.584Z,1009.09
2017-06-13T07:36:28.843Z,1009.03
2017-06-13T07:37:25.082Z,1009.05
2017-06-13T07:38:21.448Z,1009.09
2017-06-13T07:39:17.723Z,1009.06
2017-06-13T07:40:14.002Z,1009.16
2017-06-13T07:41:10.255Z,1009.15
2017-06-13T07:42:06.495Z,1009.12
2017-06-13T07:43:02.743Z,1009.10
2017-06-13T07:43:59.019Z,1009.10
2017-06-13T07:44:55.258Z,1009.14
2017-06-13T07:45:51.499Z,1009.10
2017-06-13T07:46:47.742Z,1009.06
2017-06-13T07:47:43.987Z,1009.13
2017-06-13T07:48:40.234Z,1009.08
2017-06-13T07:49:36.499Z,1009.15
2017-06-13T07:50:32.758Z,1009.17
2017-06-13T07:51:29.000Z,1009.13
2017-06-13T07:52:25.235Z,1009.14
2017-06-13T07:53:21.500Z,1009.21
2017-06-13T07:54:17.739Z,1009.20
2017-06-13T07:55:13.999Z,1009.19
2017-06-13T07:56:10.243Z,1009.28
2017-06-13T07:57:06.499Z,1009.27
2017-06-13T07:58:02.755Z,1009.12
2017-06-13T07:58:58.985Z,1009.17
2017-06-13T07:59:55.231Z,1009.18
2017-06-13T08:00:51.486Z,1009.18
2017-06-13T08:01:47.724Z,1009.19
2017-06-13T08:02:43.970Z,1009.14
2017-06-13T08:03:40.202Z,1009.11
2017-06-13T08:04:36.443Z,1009.18
2017-06-13T08:05:32.704Z,1009.16
2017-06-13T08:06:28.958Z,1009.21
2017-06-13T08:07:26.098Z,1009.13
2017-06-13T08:08:22.352Z,1009.14
2017-06-13T08:09:18.591Z,1009.12
2017-06-13T08:10:14.830Z,1009.20
2017-06-13T08:11:11.094Z,1009.11
2017-06-13T08:12:07.343Z,1009.16
2017-06-13T08:13:03.591Z,1009.10
2017-06-13T08:13:59.847Z,1009.04
2017-06-13T08:14:56.115Z,1009.13
2017-06-13T08:15:52.389Z,1009.19
2017-06-13T08:16:48.638Z,1009.11
2017-06-13T08:17:44.883Z,1009.12
2017-06-13T08:18:41.122Z,1009.13
2017-06-13T08:19:37.387Z,1009.22
2017-06-13T08:20:33.659Z,1009.15
2017-06-13T08:21:29.912Z,1009.20
2017-06-13T08:22:26.151Z,1009.14
2017-06-13T08:23:22.394Z,1009.15
2017-06-13T08:24:18.635Z,1009.16
2017-06-13T08:25:14.895Z,1009.19
2017-06-13T08:26:11.159Z,1009.12
2017-06-13T08:27:07.431Z,1009.12
2017-06-13T08:28:03.668Z,1009.11
2017-06-13T08:28:59.922Z,1009.19
2017-06-13T08:29:56.182Z,1009.19
2017-06-13T08:30:52.454Z,1009.19
2017-06-13T08:31:48.698Z,1009.23
2017-06-13T08:32:44.943Z,1009.21
2017-06-13T08:33:41.182Z,1009.20
2017-06-13T08:34:37.447Z,1009.14
2017-06-13T08:35:33.702Z,1009.19
2017-06-13T08:36:29.971Z,1009.16
2017-06-13T08:37:26.256Z,1009.18
2017-06-13T08:38:22.511Z,1009.19
2017-06-13T08:39:18.751Z,1009.17
2017-06-13T08:40:14.999Z,1009.20
2017-06-13T08:41:11.263Z,1009.25
2017-06-13T08:42:07.520Z,1009.23
2017-06-13T08:43:03.799Z,1009.21
2017-06-13T08:44:00.043Z,1009.19
2017-06-13T08:44:56.294Z,1009.23
2017-06-13T08:45:52.534Z,1009.27
2017-06-13T08:46:48.799Z,1009.21
2017-06-13T08:47:45.058Z,1009.32
2017-06-13T08:48:41.290Z,1009.13
2017-06-13T08:49:37.534Z,1009.19
2017-06-13T08:50:33.776Z,1009.07
2017-06-13T08:51:30.051Z,1009.12
2017-06-13T08:52:26.290Z,1009.18
2017-06-13T08:53:22.551Z,1009.16
2017-06-13T08:54:18.822Z,1009.17
2017-06-13T08:55:15.070Z,1009.25
2017-06-13T08:56:11.325Z,1009.18
2017-06-13T08:57:07.627Z,1009.16
2017-06-13T08:58:03.879Z,1009.19
2017-06-13T08:59:00.119Z,1009.15
2017-06-13T08:59:56.371Z,1009.15
2017-06-13T09:00:52.619Z,1009.24
2017-06-13T09:01:48.874Z,1009.23
2017-06-13T09:02:45.139Z,1009.23
2017-06-13T09:03:41.390Z,1009.21
2017-06-13T09:04:37.634Z,1009.11
2017-06-13T09:05:33.875Z,1009.19
2017-06-13T09:06:30.115Z,1009.09
2017-06-13T09:07:26.406Z,1009.17
2017-06-13T09:08:22.650Z,1009.12
2017-06-13T09:09:19.003Z,1009.19
2017-06-13T09:10:15.255Z,1009.13
2017-06-13T09:11:11.511Z,1009.16
2017-06-13T09:12:07.771Z,1009.20
2017-06-13T09:13:04.035Z,1009.14
2017-06-13T09:14:00.314Z,1009.13
2017-06-13T09:14:56.598Z,1009.14
2017-06-13T09:15:52.876Z,1009.17
2017-06-13T09:16:49.127Z,1009.13
2017-06-13T09:17:45.407Z,1009.06
2017-06-13T09:18:41.683Z,1009.13
2017-06-13T09:19:37.934Z,1009.14
2017-06-13T09:20:34.170Z,1009.09
2017-06-13T09:21:30.427Z,1009.16
2017-06-13T09:22:26.679Z,1009.16
2017-06-13T09:23:22.923Z,1009.10
2017-06-13T09:24:19.170Z,1009.15
2017-06-13T09:25:15.418Z,1009.09
2017-06-13T09:26:11.663Z,1009.13
2017-06-13T09:27:07.903Z,1009.16
2017-06-13T09:28:04.154Z,1009.04
2017-06-13T09:29:00.406Z,1009.08
2017-06-13T09:29:56.631Z,1009.09
2017-06-13T09:30:52.885Z,1009.16
2017-06-13T09:31:49.129Z,1009.07
2017-06-13T09:32:45.363Z,1009.11
2017-06-13T09:33:41.605Z,1009.11
2017-06-13T09:34:37.866Z,1009.09
2017-06-13T09:35:34.122Z,1009.12
2017-06-13T09:36:30.363Z,1009.16
2017-06-13T09:37:26.602Z,1009.12
2017-06-13T09:38:22.867Z,1009.14
2017-06-13T09:39:19.142Z,1009.14
2017-06-13T09:40:15.383Z,1009.11
2017-06-13T09:41:11.670Z,1009.14
2017-06-13T09:42:07.995Z,1009.06
2017-06-13T09:43:04.278Z,1009.18
2017-06-13T09:44:00.596Z,1009.10
2017-06-13T09:44:56.858Z,1009.07
2017-06-13T09:45:53.103Z,1009.09
2017-06-13T09:46:49.362Z,1009.09
2017-06-13T09:47:45.625Z,1009.09
2017-06-13T09:48:41.887Z,1008.99
2017-06-13T09:49:38.147Z,1009.07
2017-06-13T09:50:34.419Z,1009.03
2017-06-13T09:51:30.663Z,1009.07
2017-06-13T09:52:26.910Z,1008.98
2017-06-13T09:53:23.175Z,1009.04
2017-06-13T09:54:19.418Z,1009.06
2017-06-13T09:55:15.678Z,1008.95
2017-06-13T09:56:11.987Z,1009.05
2017-06-13T09:57:08.230Z,1009.00
2017-06-13T09:58:04.536Z,1009.02
2017-06-13T09:59:00.787Z,1009.01
2017-06-13T09:59:57.035Z,1008.94
2017-06-13T10:00:53.278Z,1008.95
2017-06-13T10:01:49.527Z,1008.98
2017-06-13T10:02:45.763Z,1009.00
2017-06-13T10:03:42.010Z,1009.01
2017-06-13T10:04:38.266Z,1009.05
2017-06-13T10:05:34.580Z,1009.02
2017-06-13T10:06:30.847Z,1009.02
2017-06-13T10:07:27.082Z,1008.97
2017-06-13T10:08:23.327Z,1009.05
2017-06-13T10:09:19.583Z,1009.04
2017-06-13T10:10:15.836Z,1009.00
2017-06-13T10:11:12.084Z,1008.93
2017-06-13T10:12:08.372Z,1008.95
2017-06-13T10:13:04.635Z,1009.00
2017-06-13T10:14:00.886Z,1008.97
2017-06-13T10:14:57.130Z,1009.05
2017-06-13T10:15:53.369Z,1009.04
2017-06-13T10:16:49.619Z,1009.01
2017-06-13T10:17:45.899Z,1008.96
2017-06-13T10:18:42.163Z,1008.95
2017-06-13T10:19:38.419Z,1008.97
2017-06-13T10:20:34.687Z,1008.93
2017-06-13T10:21:30.946Z,1008.91
2017-06-13T10:22:27.194Z,1008.94
2017-06-13T10:23:23.490Z,1008.93
2017-06-13T10:24:19.734Z,1008.92
2017-06-13T10:25:15.998Z,1008.97
2017-06-13T10:26:12.250Z,1008.94
2017-06-13T10:27:08.495Z,1008.97
2017-06-13T10:28:04.742Z,1008.92
2017-06-13T10:29:01.027Z,1008.97
2017-06-13T10:29:57.254Z,1009.01
2017-06-13T10:30:53.499Z,1008.97
2017-06-13T10:31:49.738Z,1008.93
2017-06-13T10:32:45.997Z,1008.89
2017-06-13T10:33:42.254Z,1008.88
2017-06-13T10:34:38.528Z,1008.93
2017-06-13T10:35:34.775Z,1008.88
2017-06-13T10:36:31.030Z,1008.87
2017-06-13T10:37:27.279Z,1008.81
2017-06-13T10:38:23.531Z,1008.78
2017-06-13T10:39:19.832Z,1008.80
2017-06-13T10:40:16.069Z,1008.79
2017-06-13T10:41:12.312Z,1008.81
2017-06-13T10:42:08.565Z,1008.81
2017-06-13T10:43:04.808Z,1008.79
2017-06-13T10:44:01.076Z,1008.85
2017-06-13T10:44:57.346Z,1008.81
2017-06-13T10:45:53.602Z,1008.80
2017-06-13T10:46:49.846Z,1008.84
2017-06-13T10:47:46.091Z,1008.80
2017-06-13T10:48:42.338Z,1008.75
2017-06-13T10:49:38.622Z,1008.84
2017-06-13T10:50:34.876Z,1008.73
2017-06-13T10:51:31.134Z,1008.80
2017-06-13T10:52:27.379Z,1008.74
2017-06-13T10:53:24.400Z,1008.77
2017-06-13T10:54:20.643Z,1008.78
2017-06-13T10:55:16.911Z,1008.80
2017-06-13T10:56:13.158Z,1008.79
2017-06-13T10:57:09.405Z,1008.73
2017-06-13T10:58:05.675Z,1008.79
2017-06-13T10:59:01.919Z,1008.76
2017-06-13T10:59:58.177Z,1008.77
2017-06-13T11:00:54.438Z,1008.79
2017-06-13T11:01:50.684Z,1008.73
2017-06-13T11:02:46.955Z,1008.77
2017-06-13T11:03:43.227Z,1008.79
2017-06-13T11:04:39.488Z,1008.80
2017-06-13T11:05:35.762Z,1008.85
2017-06-13T11:06:32.030Z,1008.81
2017-06-13T11:07:28.263Z,1008.88
2017-06-13T11:08:24.502Z,1008.74
2017-06-13T11:09:20.743Z,1008.81
2017-06-13T11:10:16.998Z,1008.85
2017-06-13T11:11:13.267Z,1008.79
2017-06-13T11:12:09.524Z,1008.87
2017-06-13T11:13:05.783Z,1008.76
2017-06-13T11:14:02.022Z,1008.78
2017-06-13T11:14:58.279Z,1008.73
2017-06-13T11:15:54.522Z,1008.67
2017-06-13T11:16:50.812Z,1008.70
2017-06-13T11:17:47.063Z,1008.75
2017-06-13T11:18:43.315Z,1008.76
2017-06-13T11:19:39.570Z,1008.75
2017-06-13T11:20:35.888Z,1008.82